Flight Track Log - Related Links

Times and Time Zones

All times are in EDT time to prevent confusion due to time zone crossing. See the JBU1200 flight status page for this flight to view local times or setup timezone preferences in your user account.

Time Position Orientation Groundspeed Altitude Reporting Facility
EDT Latitude Longitude Course Direction KTS MPH feet Rate Location/Type
Sun 09:11:15 PM 26.5675 -81.7523 248° West  Level FlightAware Approximate
Sun 09:12:15 PM 26.6932 -81.7500 216° Southwest  Level FlightAware Approximate
Sun 09:13:15 PM 26.7959 -81.6874 213° Southwest  Level FlightAware Approximate
Sun 09:14:14 PM 26.5178 -81.8919 351° North 218 251 4,400  Level Miami Center
Sun 09:15:14 PM 26.5883 -81.9042 351° North 197 227 6,900 2,400 Climbing Miami Center
Sun 09:16:14 PM 26.6631 -81.9167 North 235 270 9,200 2,000 Climbing Miami Center
Sun 09:17:14 PM 26.7450 -81.9039 25° Northeast 258 297 10,900 1,850 Climbing Miami Center
Sun 09:18:14 PM 26.8319 -81.8589 28° Northeast 300 345 12,900 2,100 Climbing Miami Center
Sun 09:19:14 PM 26.9217 -81.8044 25° Northeast 327 376 15,100 2,050 Climbing Miami Center
Sun 09:20:14 PM 27.0172 -81.7550 349° North 349 402 17,000 2,150 Climbing Miami Center
Sun 09:21:14 PM 27.1147 -81.7756 343° North 342 394 19,400 2,200 Climbing Miami Center
Sun 09:22:14 PM 27.2239 -81.8128 345° North 363 418 21,400 1,750 Climbing Miami Center
Sun 09:23:14 PM 27.3253 -81.8428 341° North 377 434 22,900 1,500 Climbing Miami Center
Sun 09:24:14 PM 27.4303 -81.8825 342° North 388 447 24,400 1,500 Climbing Miami Center
Sun 09:25:14 PM 27.5272 -81.9172 346° North 393 452 25,900 1,300 Climbing Miami Center
Sun 09:26:14 PM 27.6389 -81.9478 351° North 398 458 27,000 1,150 Climbing Miami Center
Sun 09:27:14 PM 27.7672 -81.9700 352° North 416 479 28,200 1,200 Climbing Miami Center
Sun 09:28:14 PM 27.8836 -81.9892 19° North 426 490 29,400 1,100 Climbing Miami Center
Sun 09:29:14 PM 28.0019 -81.9431 41° Northeast 421 484 30,400 950 Climbing Miami Center
Sun 09:30:14 PM 28.1014 -81.8439 39° Northeast 433 498 31,300 950 Climbing Miami Center
Sun 09:31:14 PM 28.2069 -81.7472 19° North 455 524 32,300 950 Climbing Miami Center
Sun 09:32:14 PM 28.3233 -81.7028 North 443 510 33,200 850 Climbing Miami Center
Sun 09:33:14 PM 28.4489 -81.6894 North 433 498 34,000 783 Climbing Miami Center
Sun 09:34:09 PM 28.5492 -81.6825 North 449 517 34,700 517 Climbing Jacksonville Center
Sun 09:35:10 PM 28.6764 -81.6714 North 449 517 35,000 149 Climbing Jacksonville Center
Sun 09:36:10 PM 28.8056 -81.6581 North 454 522 35,000  Level Jacksonville Center
Sun 09:37:09 PM 28.9328 -81.6469 North 460 529 35,000  Level Jacksonville Center
Sun 09:38:10 PM 29.0600 -81.6336 North 460 529 35,000  Level Jacksonville Center
Sun 09:39:10 PM 29.1892 -81.6178 North 460 529 35,000  Level Jacksonville Center
Sun 09:40:10 PM 29.3308 -81.5967 North 460 529 35,000  Level Jacksonville Center
Sun 09:41:10 PM 29.4600 -81.5758 North 465 535 35,000  Level Jacksonville Center
Sun 09:42:10 PM 29.5894 -81.5575 North 465 535 35,000  Level Jacksonville Center
Sun 09:43:10 PM 29.7186 -81.5367 North 465 535 35,000  Level Jacksonville Center
Sun 09:44:10 PM 29.8353 -81.5206 North 465 535 35,000  Level Jacksonville Center
Sun 09:45:10 PM 29.9644 -81.4997 North 465 535 35,000  Level Jacksonville Center
Sun 09:46:10 PM 30.0917 -81.4786 North 465 535 35,000  Level Jacksonville Center
Sun 09:47:10 PM 30.2231 -81.4597 North 465 535 35,000  Level Jacksonville Center
Sun 09:48:10 PM 30.3522 -81.4386 North 465 535 35,000  Level Jacksonville Center
Sun 09:49:10 PM 30.4814 -81.4197 North 465 535 35,000  Level Jacksonville Center
Sun 09:50:10 PM 30.6106 -81.3986 North 465 535 35,000  Level Jacksonville Center
Sun 09:51:10 PM 30.7439 -81.3794 North 470 541 35,000  Level Jacksonville Center
Sun 09:52:10 PM 30.8753 -81.3556 North 470 541 35,000  Level Jacksonville Center
Sun 09:53:10 PM 31.0067 -81.3389 North 470 541 35,000  Level Jacksonville Center
Sun 09:54:10 PM 31.1400 -81.3150 North 470 541 35,000  Level Jacksonville Center
Sun 09:55:10 PM 31.2733 -81.2931 North 478 550 35,000  Level Jacksonville Center
Sun 09:56:10 PM 31.4047 -81.2764 North 483 556 35,000  Level Jacksonville Center
Sun 09:57:10 PM 31.5525 -81.2542 North 483 556 35,000  Level Jacksonville Center
Sun 09:58:10 PM 31.6714 -81.2350 North 482 555 35,000  Level Jacksonville Center
Sun 09:59:10 PM 31.8025 -81.2131 North 482 555 35,000  Level Jacksonville Center
Sun 10:00:10 PM 31.9358 -81.1936 North 482 555 35,000  Level Jacksonville Center
Sun 10:01:10 PM 32.0672 -81.1717 North 482 555 35,000  Level Jacksonville Center
Sun 10:02:10 PM 32.2025 -81.1494 North 482 555 35,000  Level Jacksonville Center
Sun 10:03:10 PM 32.3400 -81.1269 North 482 555 35,000  Level Jacksonville Center
Sun 10:04:10 PM 32.4881 -81.1069 North 482 555 35,000  Level Jacksonville Center
Sun 10:05:10 PM 32.6214 -81.0847 North 487 560 35,000  Level Jacksonville Center
Sun 10:06:10 PM 32.7419 -81.0650 North 482 555 35,000  Level Jacksonville Center
Sun 10:07:10 PM 32.8733 -81.0425 North 477 549 35,000  Level Jacksonville Center
Sun 10:08:10 PM 33.0086 -81.0225 North 477 549 35,000  Level Jacksonville Center
Sun 10:09:10 PM 33.1419 -80.9997 North 482 555 35,000  Level Jacksonville Center
Sun 10:10:10 PM 33.2772 -80.9794 North 482 555 35,000  Level Jacksonville Center
Sun 10:11:10 PM 33.4106 -80.9567 North 482 555 35,000  Level Jacksonville Center
Sun 10:12:10 PM 33.5561 -80.9311 North 482 555 35,000  Level Jacksonville Center
Sun 10:13:10 PM 33.6914 -80.9081 North 482 555 35,000  Level Jacksonville Center
Sun 10:14:10 PM 33.8247 -80.8875 North 482 555 35,000  Level Jacksonville Center
Sun 10:15:10 PM 33.9600 -80.8644 North 482 555 35,000  Level Jacksonville Center
Sun 10:16:09 PM 34.0931 -80.8414 North 482 555 35,000  Level Jacksonville Center
Sun 10:17:10 PM 34.2264 -80.8206 North 482 555 35,000  Level Jacksonville Center
Sun 10:19:01 PM 34.4711 -80.7808 North 464 534 35,000  Level Atlanta Center
Sun 10:20:01 PM 34.6039 -80.7581 North 476 548 35,000  Level Atlanta Center
Sun 10:21:01 PM 34.7392 -80.7350 North 481 554 35,000  Level Atlanta Center
Sun 10:22:01 PM 34.8719 -80.7122 North 481 554 35,000  Level Atlanta Center
Sun 10:23:01 PM 34.9903 -80.6922 North 481 554 35,000  Level Atlanta Center
Sun 10:24:01 PM 35.1294 -80.6661 North 486 559 35,000  Level Atlanta Center
Sun 10:25:01 PM 35.2625 -80.6456 North 491 565 35,000  Level Atlanta Center
Sun 10:26:01 PM 35.3975 -80.6222 North 491 565 35,000  Level Atlanta Center
Sun 10:27:01 PM 35.5344 -80.5986 North 491 565 35,000  Level Atlanta Center
Sun 10:28:01 PM 35.6714 -80.5750 North 491 565 35,000  Level Atlanta Center
Sun 10:29:01 PM 35.8064 -80.5514 North 491 565 35,000  Level Atlanta Center
Sun 10:30:01 PM 35.9536 -80.5219 North 496 571 35,000  Level Atlanta Center
Sun 10:31:01 PM 36.0928 -80.4978 North 491 565 35,000  Level Atlanta Center
Sun 10:32:01 PM 36.2297 -80.4739 North 491 565 35,000  Level Atlanta Center
Sun 10:33:38 PM 36.4461 -80.4386 North 502 578 35,000  Level Washington Center
Sun 10:34:38 PM 36.5700 -80.4181 North 502 578 35,000  Level Washington Center
Sun 10:35:36 PM 36.7067 -80.3928 North 497 572 35,000  Level Washington Center
Sun 10:36:37 PM 36.8453 -80.3675 North 502 578 35,000  Level Washington Center
Sun 10:37:37 PM 36.9817 -80.3450 North 502 578 35,000  Level Washington Center
Sun 10:38:36 PM 37.1203 -80.3222 North 502 578 35,000  Level Washington Center
Sun 10:39:37 PM 37.2758 -80.2928 North 502 578 35,000  Level Washington Center
Sun 10:40:37 PM 37.4167 -80.2672 North 510 587 35,000  Level Washington Center
Sun 10:41:38 PM 37.5575 -80.2419 North 510 587 35,000  Level Washington Center
Sun 10:42:37 PM 37.7003 -80.2167 North 505 581 35,000  Level Washington Center
Sun 10:43:37 PM 37.8411 -80.1911 North 505 581 35,000  Level Washington Center
Sun 10:44:36 PM 37.9839 -80.1656 North 505 581 35,000  Level Washington Center
Sun 10:45:36 PM 38.1142 -80.1419 North 512 589 35,000  Level Washington Center
Sun 10:46:37 PM 38.2592 -80.1136 North 517 595 35,000  Level Washington Center
Sun 10:47:37 PM 38.3997 -80.0878 North 517 595 35,000  Level Washington Center
Sun 10:48:38 PM 38.5425 -80.0619 North 517 595 35,000  Level Washington Center
Sun 10:49:36 PM 38.6833 -80.0358 North 517 595 35,000  Level Washington Center
Sun 10:50:39 PM 38.8344 -80.0078 North 511 588 35,000  Level Washington Center
Sun 10:52:40 PM 39.1150 -79.9492 North 506 582 35,000  Level Cleveland Center
Sun 10:53:40 PM 39.2586 -79.9236 North 506 582 35,000  Level Cleveland Center
Sun 10:54:41 PM 39.4003 -79.8953 North 506 582 35,000  Level Cleveland Center
Sun 10:55:40 PM 39.5439 -79.8669 North 511 588 35,000  Level Cleveland Center
Sun 10:56:41 PM 39.6853 -79.8386 North 516 594 35,000  Level Cleveland Center
Sun 10:57:40 PM 39.8269 -79.8128 13° North 516 594 35,000  Level Cleveland Center
Sun 10:58:41 PM 39.9642 -79.7706 16° North 511 588 35,000  Level Cleveland Center
Sun 10:59:41 PM 40.0994 -79.7200 14° North 505 581 35,000  Level Cleveland Center
Sun 11:00:41 PM 40.2367 -79.6747 North 505 581 35,000  Level Cleveland Center
Sun 11:01:41 PM 40.3761 -79.6456 North 505 581 35,000  Level Cleveland Center
Sun 11:02:41 PM 40.5175 -79.6217 North 505 581 35,000  Level Cleveland Center
Sun 11:03:40 PM 40.6611 -79.5978 North 505 581 35,000  Level Cleveland Center
Sun 11:04:41 PM 40.8047 -79.5736 North 510 587 35,000 -149 Level Cleveland Center
Sun 11:05:41 PM 40.9483 -79.5494 North 515 593 34,700 -500 Descending Cleveland Center
Sun 11:06:41 PM 41.0942 -79.5225 North 520 598 34,000 -350 Descending Cleveland Center
Sun 11:07:41 PM 41.2419 -79.4978 North 520 598 34,000  Level Cleveland Center
Sun 11:08:41 PM 41.3833 -79.4733 North 520 598 34,000  Level Cleveland Center
Sun 11:09:41 PM 41.5250 -79.4489 18° North 515 593 34,000  Level Cleveland Center
Sun 11:10:41 PM 41.6558 -79.3908 33° Northeast 515 593 34,000 -151 Level Cleveland Center
Sun 11:11:40 PM 41.7714 -79.2886 18° North 484 557 33,700 -900 Descending Cleveland Center
Sun 11:12:41 PM 41.9144 -79.2269 359° North 484 557 32,200 -1,450 Descending Cleveland Center
Sun 11:13:40 PM 42.0353 -79.2300 356° North 484 557 30,800 -2,420 Descending Cleveland Center
Sun 11:14:40 PM 42.1731 -79.2439 356° North 479 551 27,400 -3,000 Descending Cleveland Center
Sun 11:15:40 PM 42.3067 -79.2581 355° North 479 551 24,800 -2,430 Descending Cleveland Center
Sun 11:16:41 PM 42.4297 -79.2722 21° North 471 542 22,500 -2,750 Descending Cleveland Center
Sun 11:17:40 PM 42.5397 -79.2164 40° Northeast 420 483 19,300 -3,076 Descending Cleveland Center
Sun 11:18:40 PM 42.6342 -79.1100 43° Northeast 395 455 16,400 -2,479 Descending Cleveland Center
Sun 11:19:41 PM 42.7081 -79.0178 41° Northeast 375 432 14,300 -2,300 Descending Cleveland Center
Sun 11:20:40 PM 42.7758 -78.9369 42° Northeast 342 394 11,800 -1,966 Descending Cleveland Center
Sun 11:21:40 PM 42.8350 -78.8647 50° Northeast 302 348 10,400 -1,500 Descending Cleveland Center
Sun 11:22:40 PM 42.8736 -78.8014 131° Southeast 254 292 8,800 -1,835 Descending Cleveland Center
Sun 11:23:41 PM 42.8183 -78.7150 176° South 195 224 6,700 -1,400 Descending Cleveland Center
Sun 11:24:40 PM 42.7494 -78.7086 270° West 229 264 6,000 -701 Descending Cleveland Center
Sun 11:26:58 PM 42.7500 -78.9000 346° North 217 250 4,400 -1,063 Descending Buffalo TRACON
Sun 11:27:52 PM 42.8000 -78.9167 36° Northeast 177 204 2,600 -1,105 Descending Buffalo TRACON
Sun 11:28:52 PM 42.8333 -78.8833 66° East 155 178 2,300 -150 Descending Buffalo TRACON
Sun 11:29:52 PM 42.8500 -78.8333 36° Northeast 148 170 2,300 -100 Level Buffalo TRACON
Sun 11:30:52 PM 42.8833 -78.8000 36° Northeast 125 144 2,100 -200 Descending Buffalo TRACON

Login

Don't have an account? Register now (free) for customized features, flight alerts, and more!